Home > Products > Valid Products > TAF

000
FTUS43 KLOT 230800 AAA
TAFGYY
TAF AMD
KGYY 230851Z 2309/2406 VRB03KT P6SM SKC
     FM231500 20007KT P6SM SKC
     FM232100 09009KT P6SM SKC
     FM240200 13005KT P6SM FEW250=



000
FTUS43 KLOT 230800 AAA
TAFMDW
TAF AMD
KMDW 230851Z 2309/2406 21004KT P6SM SKC
     FM231500 23007KT P6SM SKC
     FM232130 10009KT P6SM SKC
     FM240100 15005KT P6SM FEW250=



000
FTUS43 KLOT 230800 AAA
TAFORD
TAF AMD
KORD 230851Z 2309/2412 21004KT P6SM SKC
     FM231500 23007KT P6SM SKC
     FM232200 11009KT P6SM SKC
     FM240100 15005KT P6SM FEW250=



000
FTUS43 KLOT 230800 AAA
TAFRFD
TAF AMD
KRFD 230851Z 2309/2406 20003KT P6SM SKC
     FM231500 21008KT P6SM SKC
     FM232200 15005KT P6SM FEW250=



000
FTUS43 KLOT 230800 AAA
TAFDPA
TAF AMD
KDPA 230851Z 2309/2406 18003KT P6SM SKC
     FM231500 21007KT P6SM SKC
     FM232300 15005KT P6SM FEW250=



000
FTUS43 KLOT 230500
TAFRFD
TAF
KRFD 230531Z 2306/2406 20003KT P6SM SKC
     FM231500 21008KT P6SM SKC
     FM232200 15005KT P6SM FEW250=



000
FTUS43 KLOT 230500
TAFGYY
TAF
KGYY 230531Z 2306/2406 VRB03KT P6SM SKC
     FM231500 20007KT P6SM SKC
     FM232000 09009KT P6SM SKC
     FM240200 13005KT P6SM FEW250=



000
FTUS43 KLOT 230500
TAFMDW
TAF
KMDW 230531Z 2306/2406 20004KT P6SM SKC
     FM231500 23007KT P6SM SKC
     FM232030 10009KT P6SM SKC
     FM240100 15005KT P6SM FEW250=



000
FTUS43 KLOT 230500
TAFDPA
TAF
KDPA 230531Z 2306/2406 VRB03KT P6SM SKC
     FM231500 21007KT P6SM SKC
     FM232300 15005KT P6SM FEW250=



000
FTUS43 KLOT 230500
TAFORD
TAF
KORD 230531Z 2306/2412 20004KT P6SM SKC
     FM231500 23007KT P6SM SKC
     FM232100 11009KT P6SM SKC
     FM240100 15005KT P6SM FEW250=



000
FTUS43 KLOT 230500
TAFGYY
TAF
KGYY 230531Z 2306/2406 VRB03KT P6SM SKC
     FM231500 20007KT P6SM SKC
     FM232000 09009KT P6SM SKC
     FM240200 13005KT P6SM FEW250=



000
FTUS43 KLOT 230200 AAA
TAFDPA
TAF AMD
KDPA 230255Z 2303/2324 VRB03KT P6SM SKC
     FM231500 20007KT P6SM SKC=



000
FTUS43 KLOT 230200 AAA
TAFGYY
TAF AMD
KGYY 230255Z 2303/2324 VRB03KT P6SM SKC
     FM231500 19007KT P6SM SKC
     FM232000 06009KT P6SM SKC=



000
FTUS43 KLOT 230200 AAA
TAFMDW
TAF AMD
KMDW 230255Z 2303/2324 18004KT P6SM SKC
     FM231500 20007KT P6SM SKC
     FM232030 10009KT P6SM SKC=



000
FTUS43 KLOT 230200 AAA
TAFGYY
TAF AMD
KGYY 230255Z 2303/2324 VRB03KT P6SM SKC
     FM231500 19007KT P6SM SKC
     FM232000 06009KT P6SM SKC=



000
FTUS43 KLOT 230200 AAA
TAFORD
TAF AMD
KORD 230255Z 2303/2406 19004KT P6SM SKC
     FM231500 20007KT P6SM SKC
     FM232100 11008KT P6SM SKC
     FM240100 16005KT P6SM SCT250=



000
FTUS43 KLOT 230200 AAA
TAFRFD
TAF AMD
KRFD 230255Z 2303/2324 18003KT P6SM SKC
     FM231500 19008KT P6SM SKC=



000
FTUS43 KLOT 222300
TAFMDW
TAF
KMDW 222337Z 2300/2324 13007KT P6SM SKC
     FM230130 18003KT P6SM SKC
     FM231500 20007KT P6SM SKC
     FM232030 10009KT P6SM SKC=



000
FTUS43 KLOT 222300
TAFRFD
TAF
KRFD 222337Z 2300/2324 VRB03KT P6SM SKC
     FM231500 19008KT P6SM SKC=



000
FTUS43 KLOT 222300
TAFGYY
TAF
KGYY 222337Z 2300/2324 07008KT P6SM SKC
     FM230130 VRB03KT P6SM SKC
     FM231500 19007KT P6SM SKC
     FM232000 06009KT P6SM SKC=



000
FTUS43 KLOT 222300
TAFORD
TAF
KORD 222337Z 2300/2406 27006KT P6SM SKC
     FM230030 12005KT P6SM SKC
     FM230200 VRB03KT P6SM SKC
     FM231500 20007KT P6SM SKC
     FM232100 11008KT P6SM SKC
     FM240100 16005KT P6SM SCT250=



000
FTUS43 KLOT 222300
TAFDPA
TAF
KDPA 222337Z 2300/2324 VRB03KT P6SM SKC
     FM231500 20007KT P6SM SKC=



000
FTUS43 KLOT 222200 AAB
TAFORD
TAF AMD
KORD 222200Z 2222/2324 25005KT P6SM SKC
     FM222330 11005KT P6SM SKC
     FM230100 20004KT P6SM SKC
     FM231400 22005KT P6SM SKC
     FM232100 12006KT P6SM SKC=



000
FTUS43 KLOT 222200 AAB
TAFGYY
TAF AMD
KGYY 222200Z 2222/2318 06008KT P6SM SKC
     FM230100 18003KT P6SM SKC
     FM231400 22005KT P6SM SKC=



000
FTUS43 KLOT 222200 AAC
TAFMDW
TAF AMD
KMDW 222200Z 2222/2318 09008KT P6SM SKC
     FM230000 20004KT P6SM SKC
     FM231400 22005KT P6SM SKC=



000
FTUS43 KLOT 222200 AAB
TAFDPA
TAF AMD
KDPA 222200Z 2222/2318 VRB04KT P6SM SKC
     FM231400 22005KT P6SM SKC=



000
FTUS43 KLOT 222200 AAB
TAFGYY
TAF AMD
KGYY 222200Z 2222/2318 06008KT P6SM SKC
     FM230100 18003KT P6SM SKC
     FM231400 22005KT P6SM SKC=



000
FTUS43 KLOT 222200 AAB
TAFRFD
TAF AMD
KRFD 222200Z 2222/2318 27007KT P6SM SKC
     FM230100 VRB02KT P6SM SKC
     FM231500 21005KT P6SM SKC=



000
FTUS43 KLOT 222100 AAB
TAFMDW
TAF AMD
KMDW 222102Z 2221/2318 09008KT P6SM SKC
     FM230000 20004KT P6SM SKC
     FM231400 22005KT P6SM SKC=



000
FTUS43 KLOT 221900 AAA
TAFRFD
TAF AMD
KRFD 221949Z 2220/2318 26005KT P6SM SKC
     FM230200 VRB02KT P6SM SKC
     FM231500 21005KT P6SM SKC=



000
FTUS43 KLOT 221900 AAA
TAFORD
TAF AMD
KORD 221949Z 2220/2324 31006KT P6SM SKC
     FM222000 26005KT P6SM SKC
     FM231400 22005KT P6SM SKC
     FM232100 12006KT P6SM SKC=



000
FTUS43 KLOT 221900 AAA
TAFMDW
TAF AMD
KMDW 221949Z 2220/2318 31006KT P6SM SKC
     FM222000 26006KT P6SM SKC
     FM231400 22005KT P6SM SKC=



000
FTUS43 KLOT 221900 AAA
TAFGYY
TAF AMD
KGYY 221949Z 2220/2318 02005KT P6SM SKC
     FM230200 22005KT P6SM SKC
     FM231400 22005KT P6SM SKC=



000
FTUS43 KLOT 221900 AAA
TAFDPA
TAF AMD
KDPA 221949Z 2220/2318 31005KT P6SM SKC
     FM230200 VRB02KT P6SM SKC
     FM231400 22005KT P6SM SKC=



000
FTUS43 KLOT 221700
TAFGYY
TAF
KGYY 221720Z 2218/2318 01008KT P6SM SCT030
     FM222100 04005KT P6SM SKC
     FM230200 22005KT P6SM SKC
     FM231400 22005KT P6SM SKC=



000
FTUS43 KLOT 221700
TAFMDW
TAF
KMDW 221720Z 2218/2318 31007KT P6SM FEW030
     FM222000 26006KT P6SM SKC
     FM231400 22005KT P6SM SKC=



000
FTUS43 KLOT 221700
TAFDPA
TAF
KDPA 221720Z 2218/2318 31005KT P6SM SKC
     FM222000 26006KT P6SM SKC
     FM230200 VRB02KT P6SM SKC
     FM231400 22005KT P6SM SKC=



000
FTUS43 KLOT 221700
TAFRFD
TAF
KRFD 221720Z 2218/2318 26006KT P6SM SKC
     FM230200 VRB02KT P6SM SKC
     FM231500 21005KT P6SM SKC=



000
FTUS43 KLOT 221700
TAFORD
TAF
KORD 221720Z 2218/2324 31007KT P6SM FEW030
     FM222000 26005KT P6SM SKC
     FM231400 22005KT P6SM SKC
     FM232100 12006KT P6SM SKC=



000
FTUS43 KLOT 221600 AAB
TAFGYY
TAF AMD
KGYY 221605Z 2216/2312 01008KT P6SM SCT030
     FM222100 04005KT P6SM SKC
     FM230200 22005KT P6SM SKC=



000
FTUS43 KLOT 221600 AAB
TAFMDW
TAF AMD
KMDW 221605Z 2216/2312 31007KT P6SM FEW030
     FM222000 26006KT P6SM SKC=



000
FTUS43 KLOT 221600 AAB
TAFDPA
TAF AMD
KDPA 221605Z 2216/2312 31005KT P6SM SKC
     FM222000 26006KT P6SM SKC=



000
FTUS43 KLOT 221600 AAB
TAFRFD
TAF AMD
KRFD 221605Z 2216/2312 30005KT P6SM SKC
     FM221900 26007KT P6SM SKC=



000
FTUS43 KLOT 221600 AAB
TAFORD
TAF AMD
KORD 221605Z 2216/2318 31007KT P6SM FEW030
     FM222000 26006KT P6SM SKC=



000
FTUS43 KLOT 221300 AAA
TAFORD
TAF AMD
KORD 221355Z 2214/2318 33007KT P6SM FEW025
     FM222000 26006KT P6SM SKC=



000
FTUS43 KLOT 221300 AAA
TAFGYY
TAF AMD
KGYY 221355Z 2214/2312 01008KT P6SM SCT030
     FM222100 04005KT P6SM SKC
     FM230200 22005KT P6SM SKC=



000
FTUS43 KLOT 221300 AAA
TAFGYY
TAF AMD
KGYY 221355Z 2214/2312 01008KT P6SM SCT030
     FM222100 04005KT P6SM SKC
     FM230200 22005KT P6SM SKC=



000
FTUS43 KLOT 221300 AAA
TAFRFD
TAF AMD
KRFD 221355Z 2214/2312 VRB03KT P6SM SKC
     FM221600 31005KT P6SM SKC
     FM221900 26007KT P6SM SKC=



000
FTUS43 KLOT 221300 AAA
TAFDPA
TAF AMD
KDPA 221355Z 2214/2312 33005KT P6SM SKC
     FM222000 26006KT P6SM SKC=



000
FTUS43 KLOT 221300 AAA
TAFMDW
TAF AMD
KMDW 221355Z 2214/2312 33007KT P6SM FEW025
     FM222000 26006KT P6SM SKC=



000
FTUS43 KLOT 221100
TAFGYY
TAF
KGYY 221125Z 2212/2312 01009KT P6SM SKC
     FM222100 04005KT P6SM SKC
     FM230200 22005KT P6SM SKC=



000
FTUS43 KLOT 221100
TAFDPA
TAF
KDPA 221125Z 2212/2312 34005KT P6SM SKC
     FM222000 26006KT P6SM SKC=



000
FTUS43 KLOT 221100
TAFRFD
TAF
KRFD 221125Z 2212/2312 VRB03KT P6SM SKC
     FM221600 31005KT P6SM SKC
     FM221900 26007KT P6SM SKC=



000
FTUS43 KLOT 221100
TAFORD
TAF
KORD 221125Z 2212/2318 33009KT P6SM FEW025
     FM222000 26006KT P6SM SKC=



000
FTUS43 KLOT 221100
TAFMDW
TAF
KMDW 221125Z 2212/2312 33009KT P6SM FEW025
     FM222000 26006KT P6SM SKC=



000
FTUS43 KLOT 220800 AAA
TAFORD
TAF AMD
KORD 220854Z 2209/2312 33006KT P6SM FEW025
     FM222000 27006KT P6SM SKC=



000
FTUS43 KLOT 220800 AAA
TAFMDW
TAF AMD
KMDW 220854Z 2209/2306 33006KT P6SM FEW025
     FM222000 27006KT P6SM SKC=



000
FTUS43 KLOT 220800 AAA
TAFGYY
TAF AMD
KGYY 220854Z 2209/2306 35010G16KT P6SM SCT025 BKN030
     FM221100 34009KT P6SM SKC
     FM221900 04005KT P6SM SKC
     FM230200 22005KT P6SM SKC=



000
FTUS43 KLOT 220800 AAA
TAFDPA
TAF AMD
KDPA 220854Z 2209/2306 34005KT P6SM SKC
     FM222000 27006KT P6SM SKC=



000
FTUS43 KLOT 220800 AAA
TAFGYY
TAF AMD
KGYY 220854Z 2209/2306 35010G16KT P6SM SCT025 BKN030
     FM221100 34009KT P6SM SKC
     FM221900 04005KT P6SM SKC
     FM230200 22005KT P6SM SKC=



000
FTUS43 KLOT 220800 AAA
TAFRFD
TAF AMD
KRFD 220854Z 2209/2306 VRB03KT P6SM SKC
     FM221600 31005KT P6SM SKC
     FM221900 27007KT P6SM SKC=



000
FTUS43 KLOT 220500
TAFGYY
TAF
KGYY 220536Z 2206/2306 35010G18KT P6SM SCT025 BKN040
     FM221100 34009KT P6SM SKC
     FM221900 25005KT P6SM SKC
     FM230000 22005KT P6SM SKC=



000
FTUS43 KLOT 220500
TAFMDW
TAF
KMDW 220536Z 2206/2306 34006KT P6SM SKC
     FM222000 27006KT P6SM SKC=



000
FTUS43 KLOT 220500
TAFORD
TAF
KORD 220536Z 2206/2312 34006KT P6SM SKC
     FM221900 27006KT P6SM SKC=



000
FTUS43 KLOT 220500
TAFRFD
TAF
KRFD 220536Z 2206/2306 VRB03KT P6SM SKC
     FM221600 31005KT P6SM SKC
     FM221900 27007KT P6SM SKC=



000
FTUS43 KLOT 220500
TAFDPA
TAF
KDPA 220536Z 2206/2306 34003KT P6SM SKC
     FM221900 27006KT P6SM SKC=



000
FTUS43 KLOT 220300 AAB
TAFGYY
TAF AMD
KGYY 220306Z 2203/2224 35011G16KT P6SM SCT040
     FM220500 35009KT P6SM FEW040
     FM220700 34007KT P6SM SKC=



000
FTUS43 KLOT 220300 AAB
TAFGYY
TAF AMD
KGYY 220306Z 2203/2224 35011G16KT P6SM SCT040
     FM220500 35009KT P6SM FEW040
     FM220700 34007KT P6SM SKC=



000
FTUS43 KLOT 220300 AAB
TAFMDW
TAF AMD
KMDW 220306Z 2203/2224 35006KT P6SM FEW040
     FM220600 34004KT P6SM SKC
     FM221500 32008KT P6SM SKC
     FM222000 27007KT P6SM SKC=



000
FTUS43 KLOT 220300 AAB
TAFORD
TAF AMD
KORD 220306Z 2203/2306 01005KT P6SM FEW040
     FM220600 34004KT P6SM SKC
     FM221500 32008KT P6SM SKC
     FM222000 27007KT P6SM SKC=



000
FTUS43 KLOT 220300 AAB
TAFDPA
TAF AMD
KDPA 220306Z 2203/2224 36005KT P6SM FEW040
     FM220600 34003KT P6SM SKC
     FM221500 32007KT P6SM SKC
     FM221900 27007KT P6SM SKC=



000
FTUS43 KLOT 220300 AAB
TAFRFD
TAF AMD
KRFD 220306Z 2203/2224 34004KT P6SM FEW250
     FM220600 VRB03KT P6SM SKC
     FM221500 32006KT P6SM SKC
     FM221900 27007KT P6SM SKC=



000
FTUS43 KLOT 220200 AAA
TAFGYY
TAF AMD
KGYY 220216Z 2202/2224 36011G16KT P6SM SCT040
     FM220300 35009KT P6SM SCT025 BKN040
     FM220600 34007KT P6SM SKC=



000
FTUS43 KLOT 220200 AAA
TAFRFD
TAF AMD
KRFD 220216Z 2202/2224 34004KT P6SM FEW250
     FM220600 VRB03KT P6SM SKC
     FM221500 32006KT P6SM SKC
     FM221900 27007KT P6SM SKC=



000
FTUS43 KLOT 220200 AAA
TAFDPA
TAF AMD
KDPA 220216Z 2202/2224 35007KT P6SM SCT040
     FM220300 33006KT P6SM FEW040
     FM220600 33003KT P6SM SKC
     FM221500 32007KT P6SM SKC
     FM221900 27007KT P6SM SKC=



000
FTUS43 KLOT 220200 AAA
TAFMDW
TAF AMD
KMDW 220216Z 2202/2224 01007KT P6SM SCT040
     FM220300 35006KT P6SM FEW040
     FM220600 34004KT P6SM SKC
     FM221500 32008KT P6SM SKC
     FM222000 27007KT P6SM SKC=



000
FTUS43 KLOT 220200 AAA
TAFGYY
TAF AMD
KGYY 220216Z 2202/2224 36011G16KT P6SM SCT040
     FM220300 35009KT P6SM SCT025 BKN040
     FM220600 34007KT P6SM SKC=



000
FTUS43 KLOT 220200 AAA
TAFORD
TAF AMD
KORD 220216Z 2202/2306 02007KT P6SM SCT040
     FM220300 35006KT P6SM FEW040
     FM220600 34004KT P6SM SKC
     FM221500 32008KT P6SM SKC
     FM222000 27007KT P6SM SKC=



000
FTUS43 KLOT 212300
TAFMDW
TAF
KMDW 212339Z 2200/2224 02011KT P6SM BKN040
      TEMPO 2200/2202 BKN030
     FM220300 35008KT P6SM SCT040
     FM220600 34004KT P6SM SKC
     FM221500 32008KT P6SM SKC
     FM222000 27007KT P6SM SKC=



000
FTUS43 KLOT 212300
TAFRFD
TAF
KRFD 212339Z 2200/2224 35011KT P6SM FEW050
     FM220200 35007KT P6SM FEW250
     FM220600 VRB03KT P6SM SKC
     FM221500 32006KT P6SM SKC
     FM221900 27007KT P6SM SKC=



000
FTUS43 KLOT 212300
TAFGYY
TAF
KGYY 212339Z 2200/2224 36011G16KT P6SM BKN025 OVC040
     FM220300 35009KT P6SM SCT025 BKN040
     FM220600 34007KT P6SM SKC=



000
FTUS43 KLOT 212300
TAFDPA
TAF
KDPA 212339Z 2200/2224 34011KT P6SM SCT040
     FM220300 33008KT P6SM FEW040
     FM220600 33003KT P6SM SKC
     FM221500 32007KT P6SM SKC
     FM221900 27007KT P6SM SKC=



000
FTUS43 KLOT 212300
TAFORD
TAF
KORD 212339Z 2200/2306 02011KT P6SM BKN040
     FM220300 35008KT P6SM SCT040
     FM220600 34004KT P6SM SKC
     FM221500 32008KT P6SM SKC
     FM222000 27007KT P6SM SKC=



000
FTUS43 KLOT 212300
TAFGYY
TAF
KGYY 212339Z 2200/2224 36011G16KT P6SM BKN025 OVC040
     FM220300 35009KT P6SM SCT025 BKN040
     FM220600 34007KT P6SM SKC=



000
FTUS43 KLOT 212200 AAB
TAFGYY
TAF AMD
KGYY 212204Z 2122/2218 36012G18KT P6SM BKN035
     FM220100 36012KT P6SM BKN035
     FM220600 34005KT P6SM FEW035
     FM221400 35008KT P6SM SKC=



000
FTUS43 KLOT 212200 AAC
TAFORD
TAF AMD
KORD 212204Z 2122/2224 03011G16KT P6SM BKN050
     FM220000 01011KT P6SM BKN050
     FM220300 01008KT P6SM SCT040
     FM220600 34004KT P6SM SKC
     FM221400 31007KT P6SM SKC=



000
FTUS43 KLOT 212200 AAB
TAFRFD
TAF AMD
KRFD 212204Z 2122/2218 34011G16KT P6SM SCT050
     FM220100 01008KT P6SM FEW050
     FM220600 VRB03KT P6SM SKC=



000
FTUS43 KLOT 212200 AAB
TAFDPA
TAF AMD
KDPA 212204Z 2122/2218 33011G15KT P6SM BKN050
     FM220100 35008KT P6SM SCT050
     FM220600 34003KT P6SM SKC
     FM221400 31007KT P6SM SKC=



000
FTUS43 KLOT 212200 AAB
TAFGYY
TAF AMD
KGYY 212204Z 2122/2218 36012G18KT P6SM BKN035
     FM220100 36012KT P6SM BKN035
     FM220600 34005KT P6SM FEW035
     FM221400 35008KT P6SM SKC=



000
FTUS43 KLOT 212200 AAC
TAFMDW
TAF AMD
KMDW 212204Z 2122/2218 03011G16KT P6SM BKN050
     FM220100 01011KT P6SM BKN050
     FM220300 01008KT P6SM SCT040
     FM220600 34005KT P6SM SKC
     FM221400 31007KT P6SM SKC=



000
FTUS43 KLOT 212000 AAB
TAFMDW
TAF AMD
KMDW 212055Z 2121/2218 02011G16KT P6SM BKN035
     FM220100 01011KT P6SM BKN040
     FM220300 01008KT P6SM SCT040
     FM220600 34005KT P6SM SKC
     FM221400 31007KT P6SM SKC=



000
FTUS43 KLOT 212000 AAB
TAFORD
TAF AMD
KORD 212033Z 2121/2224 34012G18KT P6SM BKN035
     FM212045 02012G18KT P6SM BKN035
     FM220000 01011KT P6SM BKN035
     FM220300 01008KT P6SM SCT040
     FM220600 34004KT P6SM SKC
     FM221400 31007KT P6SM SKC=



000
FTUS43 KLOT 212000 AAA
TAFRFD
TAF AMD
KRFD 212001Z 2120/2218 33012G18KT P6SM BKN035
     FM220100 01008KT P6SM FEW035
     FM220600 VRB03KT P6SM SKC=



000
FTUS43 KLOT 212000 AAA
TAFORD
TAF AMD
KORD 212001Z 2120/2224 34012G18KT P6SM BKN035
     FM212100 36012G18KT P6SM BKN035
     FM220000 01011KT P6SM BKN035
     FM220300 01008KT P6SM SCT040
     FM220600 34004KT P6SM SKC
     FM221400 31007KT P6SM SKC=



000
FTUS43 KLOT 212000 AAA
TAFGYY
TAF AMD
KGYY 212001Z 2120/2218 36012G18KT P6SM BKN035
     FM220000 36012KT P6SM BKN035
     FM220600 34005KT P6SM FEW035
     FM221400 35008KT P6SM SKC=



000
FTUS43 KLOT 212000 AAA
TAFDPA
TAF AMD
KDPA 212001Z 2120/2218 33012G18KT P6SM BKN035
     FM220100 35008KT P6SM SCT040
     FM220600 34003KT P6SM SKC
     FM221400 31007KT P6SM SKC=



000
FTUS43 KLOT 212000 AAA
TAFMDW
TAF AMD
KMDW 212001Z 2120/2218 36012G18KT P6SM BKN035
     FM220100 01011KT P6SM BKN040
     FM220300 01008KT P6SM SCT040
     FM220600 34005KT P6SM SKC
     FM221400 31007KT P6SM SKC=



000
FTUS43 KLOT 212000 AAA
TAFGYY
TAF AMD
KGYY 212001Z 2120/2218 36012G18KT P6SM BKN035
     FM220000 36012KT P6SM BKN035
     FM220600 34005KT P6SM FEW035
     FM221400 35008KT P6SM SKC=



000
FTUS43 KLOT 211700
TAFRFD
TAF
KRFD 211731Z 2118/2218 34014G22KT P6SM BKN025
     FM212100 36013G18KT P6SM BKN025
     FM220100 01008KT P6SM FEW035
     FM220600 VRB03KT P6SM SKC=



000
FTUS43 KLOT 211700
TAFGYY
TAF
KGYY 211731Z 2118/2218 31015G23KT P6SM VCSH SCT025 BKN035
     FM212000 36014G19KT P6SM BKN020
     FM220000 36012KT P6SM SCT015 BKN030
     FM220600 34005KT P6SM FEW035
     FM221400 35008KT P6SM SKC=



000
FTUS43 KLOT 211700
TAFMDW
TAF
KMDW 211731Z 2118/2218 34014G22KT P6SM BKN025
     FM212100 36013G18KT P6SM BKN025
     FM220000 01011KT P6SM SCT025 BKN035
     FM220300 01008KT P6SM SCT040
     FM220600 34005KT P6SM SKC
     FM221400 31007KT P6SM SKC=



000
FTUS43 KLOT 211700
TAFDPA
TAF
KDPA 211731Z 2118/2218 33014G22KT P6SM BKN025
     FM212100 35013G18KT P6SM BKN025
     FM220100 35008KT P6SM SCT040
     FM220600 34003KT P6SM SKC
     FM221400 31007KT P6SM SKC=



000
FTUS43 KLOT 211700
TAFGYY
TAF
KGYY 211731Z 2118/2218 31015G23KT P6SM VCSH SCT025 BKN035
     FM212000 36014G19KT P6SM BKN020
     FM220000 36012KT P6SM SCT015 BKN030
     FM220600 34005KT P6SM FEW035
     FM221400 35008KT P6SM SKC=



000
FTUS43 KLOT 211700
TAFORD
TAF
KORD 211731Z 2118/2224 34014G22KT P6SM BKN025
     FM212100 36013G18KT P6SM BKN025
     FM220000 01011KT P6SM SCT025 BKN035
     FM220300 01008KT P6SM SCT040
     FM220600 34004KT P6SM SKC
     FM221400 31007KT P6SM SKC=



000
FTUS43 KLOT 211600 AAB
TAFGYY
TAF AMD
KGYY 211602Z 2116/2212 30015G24KT P6SM BKN025
     FM211800 34015G23KT P6SM VCSH BKN025
     FM212100 36011G17KT P6SM BKN030
     FM220600 01011KT P6SM SCT030=



000
FTUS43 KLOT 211600 AAB
TAFGYY
TAF AMD
KGYY 211602Z 2116/2212 30015G24KT P6SM BKN025
     FM211800 34015G23KT P6SM VCSH BKN025
     FM212100 36011G17KT P6SM BKN030
     FM220600 01011KT P6SM SCT030=



000
FTUS43 KLOT 211600 AAC
TAFMDW
TAF AMD
KMDW 211602Z 2116/2212 31015G24KT P6SM BKN025
     FM211800 34015G23KT P6SM VCSH BKN025
     FM212100 36011G17KT P6SM SCT035
     FM220200 01008KT P6SM FEW030
     FM221100 36004KT P6SM SKC=



000
FTUS43 KLOT 211600 AAC
TAFORD
TAF AMD
KORD 211602Z 2116/2218 31015G24KT P6SM BKN025
     FM211800 34015G23KT P6SM VCSH BKN025
     FM212100 36011G17KT P6SM SCT035
     FM220200 01008KT P6SM FEW030
     FM221100 36004KT P6SM SKC=



000
FTUS43 KLOT 211600 AAC
TAFRFD
TAF AMD
KRFD 211602Z 2116/2212 31015G23KT P6SM BKN025
     FM211700 34015G23KT P6SM VCSH BKN025
     FM212000 36013KT P6SM SCT035
     FM220200 01010KT P6SM FEW030
     FM220700 36005KT P6SM SKC=



000
FTUS43 KLOT 211600 AAB
TAFDPA
TAF AMD
KDPA 211602Z 2116/2212 31015G24KT P6SM BKN025
     FM211800 34015G23KT P6SM VCSH BKN025
     FM212100 36011G17KT P6SM SCT035
     FM220200 01008KT P6SM FEW030
     FM221100 36004KT P6SM SKC=



000
FTUS43 KLOT 211400 AAB
TAFRFD
TAF AMD
KRFD 211400Z 2114/2212 30015G22KT P6SM BKN020
     FM211700 34013G22KT P6SM VCSH BKN025
     FM212000 36013KT P6SM SCT035
     FM220200 01010KT P6SM FEW030
     FM220700 36005KT P6SM SKC=



000
FTUS43 KLOT 211400 AAA
TAFGYY
TAF AMD
KGYY 211400Z 2114/2212 27015G22KT P6SM SCT020 BKN035
     FM211600 30014G24KT P6SM BKN020
     FM211800 34013G22KT P6SM VCSH BKN025
     FM212100 36011G17KT P6SM BKN030
     FM220600 01011KT P6SM SCT030=



000
FTUS43 KLOT 211400 AAA
TAFDPA
TAF AMD
KDPA 211400Z 2114/2212 28015G22KT P6SM SCT020 BKN035
     FM211600 30014G24KT P6SM BKN020
     FM211800 34013G22KT P6SM VCSH BKN025
     FM212100 36011G17KT P6SM SCT035
     FM220200 01008KT P6SM FEW030
     FM221100 36004KT P6SM SKC=



000
FTUS43 KLOT 211400 AAA
TAFGYY
TAF AMD
KGYY 211400Z 2114/2212 27015G22KT P6SM SCT020 BKN035
     FM211600 30014G24KT P6SM BKN020
     FM211800 34013G22KT P6SM VCSH BKN025
     FM212100 36011G17KT P6SM BKN030
     FM220600 01011KT P6SM SCT030=



000
FTUS43 KLOT 211400 AAB
TAFORD
TAF AMD
KORD 211400Z 2114/2218 28015G24KT P6SM SCT020 BKN035
     FM211600 30014G24KT P6SM BKN020
     FM211800 34013G22KT P6SM VCSH BKN025
     FM212100 36011G17KT P6SM SCT035
     FM220200 01008KT P6SM FEW030
     FM221100 36004KT P6SM SKC=



000
FTUS43 KLOT 211400 AAB
TAFMDW
TAF AMD
KMDW 211400Z 2114/2212 28015G24KT P6SM SCT020 BKN035
     FM211600 30014G24KT P6SM BKN020
     FM211800 34013G22KT P6SM VCSH BKN025
     FM212100 36011G17KT P6SM SCT035
     FM220200 01008KT P6SM FEW030
     FM221100 36004KT P6SM SKC=



000
FTUS43 KLOT 211300 AAA
TAFRFD
TAF AMD
KRFD 211306Z 2113/2212 28012G18KT P6SM SCT025 BKN035
      TEMPO 2113/2115 BKN025
     FM211500 31014G21KT P6SM BKN020
     FM211700 34013G22KT P6SM VCSH BKN025
     FM212000 36013KT P6SM SCT035
     FM220200 01010KT P6SM FEW030
     FM220700 36005KT P6SM SKC=



000
FTUS43 KLOT 211300 AAA
TAFMDW
TAF AMD
KMDW 211303Z 2113/2212 27015G23KT P6SM SCT020 BKN035
     FM211600 30014G24KT P6SM BKN020
     FM211800 34013G22KT P6SM VCSH BKN025
     FM212100 36011G17KT P6SM SCT035
     FM220200 01008KT P6SM FEW030
     FM221100 36004KT P6SM SKC=



000
FTUS43 KLOT 211300 AAA
TAFORD
TAF AMD
KORD 211302Z 2113/2218 27015G23KT P6SM SCT020 BKN035
     FM211600 30014G24KT P6SM BKN020
     FM211800 34013G22KT P6SM VCSH BKN025
     FM212100 36011G17KT P6SM SCT035
     FM220200 01008KT P6SM FEW030
     FM221100 36004KT P6SM SKC=



000
FTUS43 KLOT 211100
TAFDPA
TAF
KDPA 211136Z 2112/2212 27010G18KT P6SM FEW030
     FM211600 30014G24KT P6SM BKN020
     FM211800 34013G22KT P6SM VCSH BKN025
     FM212100 36011G17KT P6SM SCT035
     FM220200 01008KT P6SM FEW030
     FM221100 36004KT P6SM SKC=



000
FTUS43 KLOT 211100
TAFRFD
TAF
KRFD 211136Z 2112/2212 27012KT P6SM FEW030
     FM211500 31014G21KT P6SM BKN020
     FM211700 34013G22KT P6SM VCSH BKN025
     FM212000 36013KT P6SM SCT035
     FM220200 01010KT P6SM FEW030
     FM220700 36005KT P6SM SKC=



000
FTUS43 KLOT 211100
TAFGYY
TAF
KGYY 211136Z 2112/2212 27010G18KT P6SM FEW030
     FM211600 30014G24KT P6SM BKN020
     FM211800 34013G22KT P6SM VCSH BKN025
     FM212100 36011G17KT P6SM BKN030
     FM220600 01011KT P6SM SCT030=



000
FTUS43 KLOT 211100
TAFMDW
TAF
KMDW 211136Z 2112/2212 27010G18KT P6SM FEW030
     FM211600 30014G24KT P6SM BKN020
     FM211800 34013G22KT P6SM VCSH BKN025
     FM212100 36011G17KT P6SM SCT035
     FM220200 01008KT P6SM FEW030
     FM221100 36004KT P6SM SKC=



000
FTUS43 KLOT 211100
TAFORD
TAF
KORD 211136Z 2112/2218 27010G18KT P6SM FEW030
     FM211600 30014G24KT P6SM BKN020
     FM211800 34013G22KT P6SM VCSH BKN025
     FM212100 36011G17KT P6SM SCT035
     FM220200 01008KT P6SM FEW030
     FM221100 36004KT P6SM SKC=



000
FTUS43 KLOT 211100
TAFGYY
TAF
KGYY 211136Z 2112/2212 27010G18KT P6SM FEW030
     FM211600 30014G24KT P6SM BKN020
     FM211800 34013G22KT P6SM VCSH BKN025
     FM212100 36011G17KT P6SM BKN030
     FM220600 01011KT P6SM SCT030=



000
FTUS43 KLOT 210900 AAA
TAFGYY
TAF AMD
KGYY 210904Z 2109/2206 29012G19KT P6SM SCT030
     FM211100 31014G21KT P6SM BKN018
     FM211600 34013G22KT P6SM VCSH BKN025
     FM212100 36013KT P6SM SCT035
     FM220200 01010KT P6SM SKC=



000
FTUS43 KLOT 210900 AAA
TAFRFD
TAF AMD
KRFD 210904Z 2109/2206 29012KT P6SM SCT030
     FM211100 31014G21KT P6SM BKN018
     FM211600 34013G22KT P6SM VCSH BKN025
     FM212100 36013KT P6SM SCT035
     FM220200 01010KT P6SM SKC=



000
FTUS43 KLOT 210900 AAA
TAFGYY
TAF AMD
KGYY 210904Z 2109/2206 29012G19KT P6SM SCT030
     FM211100 31014G21KT P6SM BKN018
     FM211600 34013G22KT P6SM VCSH BKN025
     FM212100 36013KT P6SM SCT035
     FM220200 01010KT P6SM SKC=



000
FTUS43 KLOT 210900 AAA
TAFDPA
TAF AMD
KDPA 210904Z 2109/2206 29012G19KT P6SM SCT030
     FM211100 31014G21KT P6SM BKN018
     FM211600 34013G22KT P6SM VCSH BKN025
     FM212100 36013KT P6SM SCT035
     FM220200 01010KT P6SM SKC=



000
FTUS43 KLOT 210900 AAA
TAFMDW
TAF AMD
KMDW 210904Z 2109/2206 29012G18KT P6SM SCT030
     FM211100 31014G21KT P6SM BKN018
     FM211600 34013G22KT P6SM VCSH BKN025
     FM212100 36013KT P6SM SCT035
     FM220200 01010KT P6SM SKC=



000
FTUS43 KLOT 210900 AAA
TAFORD
TAF AMD
KORD 210904Z 2109/2212 29012G18KT P6SM SCT030
     FM211100 31014G21KT P6SM BKN018
     FM211600 34013G22KT P6SM VCSH BKN025
     FM212100 36013KT P6SM SCT035
     FM220200 01010KT P6SM SKC=



000
FTUS43 KLOT 210500 RRA
TAFGYY
TAF
KGYY 210543Z 2106/2206 22011KT 5SM BR VCSH SCT020 BKN060
     FM210630 27018G30KT 4SM -SHRA BR VCTS SCT020 BKN060CB
     FM210700 29012KT P6SM SCT030 BKN050
     FM211100 31014G21KT P6SM BKN018
     FM211600 34013G22KT P6SM VCSH BKN025
     FM212100 36013KT P6SM SCT035
     FM220200 01010KT P6SM SKC=



000
FTUS43 KLOT 210500 RRA
TAFGYY
TAF
KGYY 210543Z 2106/2206 22011KT 5SM BR VCSH SCT020 BKN060
     FM210630 27018G30KT 4SM -SHRA BR VCTS SCT020 BKN060CB
     FM210700 29012KT P6SM SCT030 BKN050
     FM211100 31014G21KT P6SM BKN018
     FM211600 34013G22KT P6SM VCSH BKN025
     FM212100 36013KT P6SM SCT035
     FM220200 01010KT P6SM SKC=



000
FTUS43 KLOT 210500 RRA
TAFRFD
TAF
KRFD 210543Z 2106/2206 29012KT P6SM SCT030 BKN050
     FM211100 31014G21KT P6SM BKN018
     FM211600 34013G22KT P6SM VCSH BKN025
     FM212100 36013KT P6SM SCT035
     FM220200 01010KT P6SM SKC=



000
FTUS43 KLOT 210500 RRA
TAFDPA
TAF
KDPA 210543Z 2106/2206 27018G31KT 6SM BR VCSH SCT020 BKN060
     FM210700 29012KT P6SM SCT030 BKN050
     FM211100 31014G21KT P6SM BKN018
     FM211600 34013G22KT P6SM VCSH BKN025
     FM212100 36013KT P6SM SCT035
     FM220200 01010KT P6SM SKC=



000
FTUS43 KLOT 210500 RRA
TAFMDW
TAF
KMDW 210543Z 2106/2206 26018G31KT 6SM -SHRA BR VCTS SCT020 BKN060CB
     FM210700 29012KT P6SM SCT030 BKN050
     FM211100 31014G21KT P6SM BKN018
     FM211600 34013G22KT P6SM VCSH BKN025
     FM212100 36013KT P6SM SCT035
     FM220200 01010KT P6SM SKC=



000
FTUS43 KLOT 210500 RRA
TAFORD
TAF
KORD 210543Z 2106/2212 27018G31KT P6SM VCSH SCT020 BKN060
     FM210700 29012KT P6SM SCT030 BKN050
     FM211100 31014G21KT P6SM BKN018
     FM211600 34013G22KT P6SM VCSH BKN025
     FM212100 36013KT P6SM SCT035
     FM220200 01010KT P6SM SKC=



000
FTUS43 KLOT 210400 AAB
TAFDPA
TAF AMD
KDPA 210409Z 2104/2124 22008KT P6SM FEW050 SCT100
     FM210500 29012G19KT P6SM SHRA VCTS SCT030 BKN060CB
      TEMPO 2105/2107 29015G25KT
     FM210700 29011KT P6SM SCT030 BKN050
     FM211300 31014G20KT P6SM BKN020
     FM211700 34015G23KT P6SM VCSH BKN025
     FM212100 36011G17KT P6SM SCT035=



000
FTUS43 KLOT 210400 AAB
TAFDPA
TAF AMD
KDPA 210409Z 2104/2124 22008KT P6SM FEW050 SCT100
     FM210500 29012G19KT P6SM SHRA VCTS SCT030 BKN060CB
      TEMPO 2105/2107 29015G25KT
     FM210700 29011KT P6SM SCT030 BKN050
     FM211300 31014G20KT P6SM BKN020
     FM211700 34015G23KT P6SM VCSH BKN025
     FM212100 36011G17KT P6SM SCT035=



000
FTUS43 KLOT 210400 AAB
TAFORD
TAF AMD
KORD 210408Z 2104/2206 23006KT P6SM FEW050 SCT100
     FM210515 29011G19KT P6SM -SHRA VCTS SCT030 BKN060CB OVC100
      TEMPO 2106/2107 29015G25KT
     FM210700 29010KT P6SM SCT030 BKN050
     FM211300 31014G21KT P6SM BKN018
     FM211700 34013G22KT P6SM VCSH BKN025
     FM212100 36013KT P6SM SCT035
     FM220200 01010KT P6SM SKC=



000
FTUS43 KLOT 210400 AAB
TAFORD
TAF AMD
KORD 210408Z 2104/2206 23006KT P6SM FEW050 SCT100
     FM210515 29011G19KT P6SM -SHRA VCTS SCT030 BKN060CB OVC100
      TEMPO 2106/2107 29015G25KT
     FM210700 29010KT P6SM SCT030 BKN050
     FM211300 31014G21KT P6SM BKN018
     FM211700 34013G22KT P6SM VCSH BKN025
     FM212100 36013KT P6SM SCT035
     FM220200 01010KT P6SM SKC=



000
FTUS43 KLOT 210300 AAB
TAFGYY
TAF AMD
KGYY 210343Z 2104/2124 VRB04KT 5SM BR FEW050 SCT100
     FM210530 29012G17KT P6SM VCSH SCT030 BKN060
      TEMPO 2106/2107 -SHRA
     FM210800 29010KT P6SM SCT030 BKN050
     FM211200 31014G21KT P6SM BKN020
     FM211700 34013G22KT P6SM VCSH BKN030
     FM212100 36012KT P6SM SCT035=



000
FTUS43 KLOT 210200 AAA
TAFDPA
TAF AMD
KDPA 210237Z 2103/2124 22008KT P6SM FEW050 SCT100
     FM210500 29012G19KT P6SM VCSH SCT030 BKN060
      TEMPO 2105/2107 29015G25KT -SHRA
     FM210700 29011KT P6SM SCT030 BKN050
     FM211300 31014G20KT P6SM BKN020
     FM211700 34015G23KT P6SM VCSH BKN025
     FM212100 36011G17KT P6SM SCT035=



000
FTUS43 KLOT 210200 AAA
TAFGYY
TAF AMD
KGYY 210237Z 2103/2124 21006KT P6SM FEW050 SCT100
     FM210530 29012G17KT P6SM VCSH SCT030 BKN060
      TEMPO 2106/2107 -SHRA
     FM210800 29010KT P6SM SCT030 BKN050
     FM211200 31014G21KT P6SM BKN020
     FM211700 34013G22KT P6SM VCSH BKN030
     FM212100 36012KT P6SM SCT035=



000
FTUS43 KLOT 210200 AAA
TAFORD
TAF AMD
KORD 210237Z 2103/2206 23006KT P6SM FEW050 SCT100
     FM210500 29011G19KT P6SM VCSH SCT030 BKN060 OVC100
      TEMPO 2105/2107 29015G25KT -SHRA
     FM210700 29010KT P6SM SCT030 BKN050
     FM211300 31014G21KT P6SM BKN018
     FM211700 34013G22KT P6SM VCSH BKN025
     FM212100 36013KT P6SM SCT035
     FM220200 01010KT P6SM SKC=



000
FTUS43 KLOT 210200 AAA
TAFGYY
TAF AMD
KGYY 210237Z 2103/2124 21006KT P6SM FEW050 SCT100
     FM210530 29012G17KT P6SM VCSH SCT030 BKN060
      TEMPO 2106/2107 -SHRA
     FM210800 29010KT P6SM SCT030 BKN050
     FM211200 31014G21KT P6SM BKN020
     FM211700 34013G22KT P6SM VCSH BKN030
     FM212100 36012KT P6SM SCT035=



000
FTUS43 KLOT 210200 AAB
TAFRFD
TAF AMD
KRFD 210237Z 2103/2124 22007KT P6SM FEW040
     FM210400 29013G20KT P6SM -SHRA VCTS BKN040 OVC080CB
     FM210600 30012KT P6SM SCT030 BKN060
     FM211200 31013G18KT P6SM BKN020 OVC050
     FM211600 33015G24KT P6SM VCSH BKN030
     FM212000 35011G17KT P6SM SCT035=



000
FTUS43 KLOT 210200 AAA
TAFMDW
TAF AMD
KMDW 210237Z 2103/2124 22007KT P6SM FEW050 SCT100
     FM210500 29011G19KT P6SM VCSH SCT030 BKN060 OVC100
      TEMPO 2105/2107 29015G25KT -SHRA
     FM210800 29010KT P6SM SCT030 BKN050
     FM211300 31014G21KT P6SM BKN018
     FM211700 34013G22KT P6SM VCSH BKN025
     FM212100 36013KT P6SM SCT035=



000
FTUS43 KLOT 210000 AAA
TAFRFD
TAF AMD
KRFD 210040Z 2101/2124 23011KT P6SM FEW040
     FM210400 27013G20KT P6SM -SHRA BKN040
     FM210600 30014G22KT P6SM SCT030 BKN060
     FM211200 31013G18KT P6SM BKN020 OVC050
     FM211700 33015G24KT P6SM VCSH BKN030
     FM212100 35012G20KT P6SM SCT035=



000
FTUS43 KLOT 202300
TAFGYY
TAF
KGYY 202340Z 2100/2124 25009KT P6SM FEW050 SCT100
     FM210500 27012G17KT P6SM VCSH SCT030 BKN060
     FM210800 29014G20KT P6SM SCT030 BKN050
     FM211200 31014G21KT P6SM BKN020
     FM211700 34013G22KT P6SM VCSH BKN030
     FM212100 36012G20KT P6SM SCT035=



000
FTUS43 KLOT 202300
TAFRFD
TAF
KRFD 202340Z 2100/2124 23011G19KT P6SM FEW040
     FM210400 27010KT P6SM -SHRA BKN040
     FM210600 30012G17KT P6SM SCT030 BKN060
     FM211200 31013G18KT P6SM BKN020 OVC050
     FM211700 33015G24KT P6SM VCSH BKN030
     FM212100 35012G20KT P6SM SCT035=



000
FTUS43 KLOT 202300
TAFDPA
TAF
KDPA 202340Z 2100/2124 22008KT P6SM FEW050 SCT100
     FM210530 27012G17KT P6SM VCSH SCT030 BKN060
     FM210800 29013G18KT P6SM SCT030 BKN050
     FM211200 31014G20KT P6SM BKN020
     FM211700 34015G23KT P6SM VCSH BKN025
     FM212100 36012G20KT P6SM SCT035=



000
FTUS43 KLOT 202300
TAFGYY
TAF
KGYY 202340Z 2100/2124 25009KT P6SM FEW050 SCT100
     FM210500 27012G17KT P6SM VCSH SCT030 BKN060
     FM210800 29014G20KT P6SM SCT030 BKN050
     FM211200 31014G21KT P6SM BKN020
     FM211700 34013G22KT P6SM VCSH BKN030
     FM212100 36012G20KT P6SM SCT035=



000
FTUS43 KLOT 202300
TAFMDW
TAF
KMDW 202340Z 2100/2124 24009KT P6SM FEW050 SCT100
     FM210500 27012G17KT P6SM VCSH SCT030 BKN060
     FM210800 29014G20KT P6SM SCT030 BKN050
     FM211200 31014G21KT P6SM BKN018
     FM211700 34013G22KT P6SM VCSH BKN025
     FM212100 36012G20KT P6SM SCT035=



000
FTUS43 KLOT 202300
TAFORD
TAF
KORD 202340Z 2100/2206 25009KT P6SM FEW050 SCT100
     FM210500 27012G17KT P6SM VCSH SCT030 BKN060
     FM210800 29014G20KT P6SM SCT030 BKN050
     FM211200 31014G21KT P6SM BKN018
     FM211700 34013G22KT P6SM VCSH BKN025
     FM212100 36012G20KT P6SM SCT035
     FM220200 01010KT P6SM SKC=



000
FTUS43 KLOT 202200 AAC
TAFGYY
TAF AMD
KGYY 202200Z 2022/2118 23012KT P6SM SCT040 BKN080
     FM210600 27010KT P6SM SCT040 BKN070
     FM210800 29012G17KT P6SM FEW030
     FM211600 31015G24KT P6SM BKN035=



000
FTUS43 KLOT 202200 AAA
TAFRFD
TAF AMD
KRFD 202200Z 2022/2118 23011G19KT P6SM SCT035 BKN060
     FM210400 27010KT P6SM VCSH BKN040
     FM210700 30012G17KT P6SM FEW030
     FM211600 34015G24KT P6SM VCSH BKN030=



000
FTUS43 KLOT 202200 AAD
TAFORD
TAF AMD
KORD 202200Z 2022/2124 25010KT P6SM FEW035 SCT060 BKN080
     FM210500 27012G17KT P6SM VCSH SCT030
     FM210900 30013G18KT P6SM FEW030
     FM211700 33015G24KT P6SM VCSH BKN030
     FM212200 36012G20KT P6SM BKN035=



000
FTUS43 KLOT 202200 AAD
TAFDPA
TAF AMD
KDPA 202200Z 2022/2118 25010KT P6SM FEW035 SCT060
     FM210500 27012G17KT P6SM VCSH SCT030
     FM210800 30013G18KT P6SM FEW030
     FM211700 33015G24KT P6SM VCSH BKN030=



000
FTUS43 KLOT 202200 AAC
TAFGYY
TAF AMD
KGYY 202200Z 2022/2118 23012KT P6SM SCT040 BKN080
     FM210600 27010KT P6SM SCT040 BKN070
     FM210800 29012G17KT P6SM FEW030
     FM211600 31015G24KT P6SM BKN035=



000
FTUS43 KLOT 202200 AAE
TAFMDW
TAF AMD
KMDW 202200Z 2022/2118 25010KT P6SM FEW035 BKN080
     FM210500 27012G17KT P6SM SCT030
     FM210800 30013G18KT P6SM FEW030
     FM211700 31015G24KT P6SM VCSH BKN030=



000
FTUS43 KLOT 202100 AAB
TAFGYY
TAF AMD
KGYY 202114Z 2021/2118 23012KT P6SM VCSH SCT040 BKN080
     FM210600 27010KT P6SM SCT040 BKN070
     FM210800 29012G17KT P6SM FEW030
     FM211600 31015G24KT P6SM BKN035=



000
FTUS43 KLOT 202100 AAB
TAFGYY
TAF AMD
KGYY 202114Z 2021/2118 23012KT P6SM VCSH SCT040 BKN080
     FM210600 27010KT P6SM SCT040 BKN070
     FM210800 29012G17KT P6SM FEW030
     FM211600 31015G24KT P6SM BKN035=



000
FTUS43 KLOT 202100 AAC
TAFDPA
TAF AMD
KDPA 202111Z 2021/2118 24013KT P6SM FEW025 BKN050 OVC080
     FM210300 27010KT P6SM SCT040 BKN070
     FM210800 29012G17KT P6SM FEW030
     FM211700 33015G24KT P6SM VCSH BKN030=



000
FTUS43 KLOT 202100 AAC
TAFORD
TAF AMD
KORD 202102Z 2021/2124 24010G17KT P6SM VCSH FEW025 BKN060 OVC080
     FM202200 27010KT P6SM SCT040 BKN070
     FM210800 29012G17KT P6SM FEW030
     FM211700 33015G24KT P6SM VCSH BKN030
     FM212200 36012G20KT P6SM BKN035=



000
FTUS43 KLOT 202100 AAD
TAFMDW
TAF AMD
KMDW 202101Z 2021/2118 25010G18KT P6SM -SHRA FEW025 BKN050 OVC080
     FM202200 27010KT P6SM SCT040 BKN070
     FM210800 29012G17KT P6SM FEW030
     FM211700 31015G24KT P6SM VCSH BKN030=



000
FTUS43 KLOT 202100 AAC
TAFMDW
TAF AMD
KMDW 202100Z 2021/2118 25010G18KT P6SM VCSH FEW025 BKN050 OVC080
     FM202200 27010KT P6SM SCT040 BKN070
     FM210800 29012G17KT P6SM FEW030
     FM211700 31015G24KT P6SM VCSH BKN030=



000
FTUS43 KLOT 201900 AAB
TAFMDW
TAF AMD
KMDW 201959Z 2020/2118 24012G18KT P6SM -SHRA SCT040 BKN080 OVC100
     FM202030 25012G18KT P6SM -SHRA VCTS FEW025 BKN050CB OVC080
      TEMPO 2021/2022 5SM -TSRA SCT025 BKN040CB
     FM202300 27010KT P6SM SCT040 BKN070
     FM210800 29012G17KT P6SM FEW030
     FM211700 31015G24KT P6SM VCSH BKN030=



000
FTUS43 KLOT 201900 AAB
TAFORD
TAF AMD
KORD 201959Z 2020/2124 24012G18KT P6SM -SHRA SCT040 BKN080 OVC100
     FM202030 25012G18KT P6SM -SHRA VCTS FEW025 BKN050CB OVC080
      TEMPO 2021/2022 5SM -TSRA SCT025 BKN040CB
     FM202300 27010KT P6SM SCT040 BKN070
     FM210800 29012G17KT P6SM FEW030
     FM211700 33015G24KT P6SM VCSH BKN030
     FM212200 36012G20KT P6SM BKN035=



000
FTUS43 KLOT 201900 AAB
TAFDPA
TAF AMD
KDPA 201959Z 2020/2118 24012G18KT P6SM -SHRA SCT040 BKN080 OVC100
     FM202000 25012G18KT P6SM -SHRA FEW025 BKN050 OVC080
      TEMPO 2020/2022 5SM -TSRA SCT025 BKN040CB
     FM202300 27010KT P6SM SCT040 BKN070
     FM210800 29012G17KT P6SM FEW030
     FM211700 33015G24KT P6SM VCSH BKN030=



000
FTUS43 KLOT 201900 AAA
TAFGYY
TAF AMD
KGYY 201925Z 2019/2118 22015G25KT P6SM VCTS SCT040CB BKN100
      TEMPO 2019/2020 5SM -TSRA SCT025 BKN040CB
     FM202000 23015G25KT P6SM VCTS SCT040CB BKN080
      TEMPO 2021/2022 5SM -TSRA SCT020 BKN040CB
     FM210000 27010KT P6SM SCT040 BKN070
     FM210800 29012G17KT P6SM FEW030
     FM211600 31015G24KT P6SM BKN035=



000
FTUS43 KLOT 201900 AAA
TAFGYY
TAF AMD
KGYY 201925Z 2019/2118 22015G25KT P6SM VCTS SCT040CB BKN100
      TEMPO 2019/2020 5SM -TSRA SCT025 BKN040CB
     FM202000 23015G25KT P6SM VCTS SCT040CB BKN080
      TEMPO 2021/2022 5SM -TSRA SCT020 BKN040CB
     FM210000 27010KT P6SM SCT040 BKN070
     FM210800 29012G17KT P6SM FEW030
     FM211600 31015G24KT P6SM BKN035=



000
FTUS43 KLOT 201900 AAA
TAFDPA
TAF AMD
KDPA 201901Z 2019/2118 24012G18KT P6SM -SHRA SCT040 BKN080 OVC100
     FM202000 25012G18KT P6SM -SHRA FEW025 BKN050 OVC080
      TEMPO 2020/2022 5SM -TSRA SCT025 BKN040CB
     FM202300 27010KT P6SM SCT040 BKN070
     FM210800 29012G17KT P6SM FEW030
     FM211700 33015G24KT P6SM VCSH BKN030=



000
FTUS43 KLOT 201800 AAA
TAFMDW
TAF AMD
KMDW 201856Z 2019/2118 24012G18KT P6SM -SHRA SCT040 BKN080 OVC100
     FM202030 25012G18KT P6SM -SHRA VCTS FEW025 BKN050CB OVC080
      TEMPO 2021/2022 5SM -TSRA SCT025 BKN040CB
     FM202300 27010KT P6SM SCT040 BKN070
     FM210800 29012G17KT P6SM FEW030
     FM211700 31015G24KT P6SM VCSH BKN030=



000
FTUS43 KLOT 201800 AAA
TAFORD
TAF AMD
KORD 201856Z 2019/2124 24012G18KT P6SM -SHRA SCT040 BKN080 OVC100
     FM202030 25012G18KT P6SM -SHRA VCTS FEW025 BKN050CB OVC080
      TEMPO 2021/2022 5SM -TSRA SCT025 BKN040CB
     FM202300 27010KT P6SM SCT040 BKN070
     FM210800 29012G17KT P6SM FEW030
     FM211700 33015G24KT P6SM VCSH BKN030
     FM212200 36012G20KT P6SM BKN035=



000
FTUS43 KLOT 201700
TAFDPA
TAF
KDPA 201734Z 2018/2118 22013G18KT P6SM VCSH SCT040 BKN100
      TEMPO 2018/2021 5SM -TSRA SCT015 BKN040CB
     FM210000 27010KT P6SM SCT040 BKN070
     FM210800 29012G17KT P6SM FEW030
     FM211700 33015G24KT P6SM VCSH BKN030=



000
FTUS43 KLOT 201700
TAFORD
TAF
KORD 201734Z 2018/2124 22012G18KT P6SM VCSH SCT040 BKN100
      TEMPO 2018/2021 5SM -TSRA SCT015 BKN040CB
     FM210000 27010KT P6SM SCT040 BKN070
     FM210800 29012G17KT P6SM FEW030
     FM211700 33015G24KT P6SM VCSH BKN030
     FM212200 36012G20KT P6SM BKN035=



000
FTUS43 KLOT 201700
TAFGYY
TAF
KGYY 201734Z 2018/2118 21013G22KT P6SM FEW040 BKN120
     FM201900 22013G18KT P6SM VCSH SCT040 BKN100
      TEMPO 2020/2023 5SM -TSRA SCT015 BKN040CB
     FM210100 27010KT P6SM SCT040 BKN070
     FM210800 29012G17KT P6SM FEW030
     FM211600 31015G24KT P6SM BKN035=



000
FTUS43 KLOT 201700
TAFRFD
TAF
KRFD 201734Z 2018/2118 23011G19KT P6SM VCSH SCT035 BKN060 BKN100
      TEMPO 2018/2020 5SM -TSRA SCT015 BKN040CB
     FM202200 27010KT P6SM SCT040
     FM210800 29012G17KT P6SM FEW030
     FM211700 34015G24KT P6SM VCSH BKN030=



000
FTUS43 KLOT 201700
TAFMDW
TAF
KMDW 201734Z 2018/2118 22013G18KT P6SM VCSH SCT040 BKN100
      TEMPO 2018/2021 5SM -TSRA SCT015 BKN040CB
     FM210000 27010KT P6SM SCT040 BKN070
     FM210800 29012G17KT P6SM FEW030
     FM211700 31015G24KT P6SM VCSH BKN030=



000
FTUS43 KLOT 201700
TAFGYY
TAF
KGYY 201734Z 2018/2118 21013G22KT P6SM FEW040 BKN120
     FM201900 22013G18KT P6SM VCSH SCT040 BKN100
      TEMPO 2020/2023 5SM -TSRA SCT015 BKN040CB
     FM210100 27010KT P6SM SCT040 BKN070
     FM210800 29012G17KT P6SM FEW030
     FM211600 31015G24KT P6SM BKN035=



000
FTUS43 KLOT 201600 AAB
TAFORD
TAF AMD
KORD 201603Z 2016/2118 22013G22KT P6SM FEW040 BKN120
     FM201800 22013G18KT P6SM VCSH SCT040 BKN100
      TEMPO 2019/2021 5SM -TSRA SCT015 BKN040CB
     FM210000 27010KT P6SM SCT040 BKN070
     FM210800 29012G17KT P6SM FEW030
     FM211500 31014G20KT P6SM VCSH BKN030=



000
FTUS43 KLOT 201600 AAB
TAFMDW
TAF AMD
KMDW 201603Z 2016/2112 22013G22KT P6SM FEW040 BKN120
     FM201800 22013G18KT P6SM VCSH SCT040 BKN100
      TEMPO 2019/2021 5SM -TSRA SCT015 BKN040CB
     FM210000 27010KT P6SM SCT040 BKN070
     FM210800 29012G17KT P6SM FEW030=



000
FTUS43 KLOT 201600 AAB
TAFRFD
TAF AMD
KRFD 201603Z 2016/2112 22013G19KT P6SM FEW040 BKN100
     FM201800 23011G16KT P6SM VCSH SCT035 BKN060 BKN100
      TEMPO 2018/2020 5SM -TSRA SCT015 BKN040CB
     FM202200 27010KT P6SM SCT040
     FM210800 29012G17KT P6SM FEW030=



000
FTUS43 KLOT 201600 AAB
TAFGYY
TAF AMD
KGYY 201603Z 2016/2112 21013G22KT P6SM FEW040 BKN120
     FM201900 22013G18KT P6SM VCSH SCT040 BKN100
      TEMPO 2020/2023 5SM -TSRA SCT015 BKN040CB
     FM210100 27010KT P6SM SCT040 BKN070
     FM210800 29012G17KT P6SM FEW030=



000
FTUS43 KLOT 201600 AAB
TAFDPA
TAF AMD
KDPA 201603Z 2016/2112 21013G22KT P6SM SCT040 BKN120
     FM201700 22013G18KT P6SM VCSH SCT040 BKN100
      TEMPO 2018/2021 5SM -TSRA SCT015 BKN040CB
     FM210000 27010KT P6SM SCT040 BKN070
     FM210800 29012G17KT P6SM FEW030=



000
FTUS43 KLOT 201600 AAB
TAFGYY
TAF AMD
KGYY 201603Z 2016/2112 21013G22KT P6SM FEW040 BKN120
     FM201900 22013G18KT P6SM VCSH SCT040 BKN100
      TEMPO 2020/2023 5SM -TSRA SCT015 BKN040CB
     FM210100 27010KT P6SM SCT040 BKN070
     FM210800 29012G17KT P6SM FEW030=



000
FTUS43 KLOT 201400 AAA
TAFGYY
TAF AMD
KGYY 201403Z 2014/2112 21013G22KT P6SM SCT040 BKN120
     FM201730 22013G18KT P6SM VCSH SCT040 BKN100
      TEMPO 2019/2022 5SM -TSRA SCT015 BKN040CB
     FM210100 27010KT P6SM SCT040 BKN070
     FM210800 29012G17KT P6SM FEW030=



000
FTUS43 KLOT 201400 AAA
TAFRFD
TAF AMD
KRFD 201403Z 2014/2112 20013G19KT P6SM SCT040 BKN100
     FM201700 25011G16KT P6SM VCSH BKN040 BKN100
      TEMPO 2017/2020 5SM -TSRA SCT015 BKN040CB
     FM210000 27010KT P6SM SCT040
     FM210800 29012G17KT P6SM FEW030=



000
FTUS43 KLOT 201400 AAA
TAFDPA
TAF AMD
KDPA 201403Z 2014/2112 21013G22KT P6SM SCT040 BKN120
     FM201700 22013G18KT P6SM VCSH SCT040 BKN100
      TEMPO 2018/2021 5SM -TSRA SCT015 BKN040CB
     FM210000 27010KT P6SM SCT040 BKN070
     FM210800 29012G17KT P6SM FEW030=



000
FTUS43 KLOT 201400 AAA
TAFMDW
TAF AMD
KMDW 201403Z 2014/2112 22013G22KT P6SM SCT040 BKN120
     FM201700 22013G18KT P6SM VCSH SCT040 BKN100
      TEMPO 2018/2021 5SM -TSRA SCT015 BKN040CB
     FM210000 27010KT P6SM SCT040 BKN070
     FM210800 29012G17KT P6SM FEW030=



000
FTUS43 KLOT 201400 AAA
TAFORD
TAF AMD
KORD 201403Z 2014/2118 22013G22KT P6SM SCT040 BKN120
     FM201700 22013G18KT P6SM VCSH SCT040 BKN100
      TEMPO 2018/2021 5SM -TSRA SCT015 BKN040CB
     FM210000 27010KT P6SM SCT040 BKN070
     FM210800 29012G17KT P6SM FEW030
     FM211500 31014G20KT P6SM VCSH BKN030=



000
FTUS43 KLOT 201400 AAA
TAFGYY
TAF AMD
KGYY 201403Z 2014/2112 21013G22KT P6SM SCT040 BKN120
     FM201730 22013G18KT P6SM VCSH SCT040 BKN100
      TEMPO 2019/2022 5SM -TSRA SCT015 BKN040CB
     FM210100 27010KT P6SM SCT040 BKN070
     FM210800 29012G17KT P6SM FEW030=



000
FTUS43 KLOT 201100
TAFGYY
TAF
KGYY 201134Z 2012/2112 21011G18KT P6SM SCT050 BKN150
     FM201430 23013G22KT P6SM SCT040 BKN120
     FM201730 22013G18KT P6SM VCSH SCT040 BKN100
      TEMPO 2019/2022 5SM -TSRA SCT015 BKN040CB
     FM210100 27010KT P6SM SCT040 BKN070
     FM210800 29012G17KT P6SM FEW030=



000
FTUS43 KLOT 201100
TAFGYY
TAF
KGYY 201134Z 2012/2112 21011G18KT P6SM SCT050 BKN150
     FM201430 23013G22KT P6SM SCT040 BKN120
     FM201730 22013G18KT P6SM VCSH SCT040 BKN100
      TEMPO 2019/2022 5SM -TSRA SCT015 BKN040CB
     FM210100 27010KT P6SM SCT040 BKN070
     FM210800 29012G17KT P6SM FEW030=



000
FTUS43 KLOT 201100
TAFDPA
TAF
KDPA 201134Z 2012/2112 21011G18KT P6SM BKN040
     FM201400 23013G22KT P6SM SCT040 BKN120
     FM201700 22013G18KT P6SM VCSH SCT040 BKN100
      TEMPO 2018/2021 5SM -TSRA SCT015 BKN040CB
     FM210000 27010KT P6SM SCT040 BKN070
     FM210800 29012G17KT P6SM FEW030=



000
FTUS43 KLOT 201100
TAFMDW
TAF
KMDW 201134Z 2012/2112 21011G18KT P6SM BKN035
     FM201400 23013G22KT P6SM SCT040 BKN120
     FM201700 22013G18KT P6SM VCSH SCT040 BKN100
      TEMPO 2018/2021 5SM -TSRA SCT015 BKN040CB
     FM210000 27010KT P6SM SCT040 BKN070
     FM210800 29012G17KT P6SM FEW030=



000
FTUS43 KLOT 201100
TAFORD
TAF
KORD 201134Z 2012/2118 21011G18KT P6SM BKN035
     FM201400 23013G22KT P6SM SCT040 BKN120
     FM201700 22013G18KT P6SM VCSH SCT040 BKN100
      TEMPO 2018/2021 5SM -TSRA SCT015 BKN040CB
     FM210000 27010KT P6SM SCT040 BKN070
     FM210800 29012G17KT P6SM FEW030
     FM211500 31014G20KT P6SM VCSH BKN030=



000
FTUS43 KLOT 201100
TAFRFD
TAF
KRFD 201134Z 2012/2112 22012KT P6SM VCSH SCT040 BKN080
     FM201400 22013G19KT P6SM SCT040 BKN100
     FM201700 25011G16KT P6SM VCSH BKN040 BKN100
      TEMPO 2017/2020 5SM -TSRA SCT015 BKN040CB
     FM210000 27010KT P6SM SCT040
     FM210800 29012G17KT P6SM FEW030=



    US Dept of Commerce
    National Oceanic and Atmospheric Administration
    National Weather Service
    1325 East West Highway
    Silver Spring, MD 20910
    Page Author: NWS Internet Services Team
Disclaimer
Information Quality
Credits
Glossary
Privacy Policy
Freedom of Information Act (FOIA)
About Us
Career Opportunities